Terminal Aerodrome Forecast
Issued by NWS

Current Version | Previous Version | Text Only | Print | Product List | Glossary Off
Versions: 1 2 3 4 5 6 7 8 9 10 11 12 13 14 15 16 17 18 19 20 21 22 23 24 25 26 27 28 29 30 31 32 33 34 35 36 37

000
FTUS41 KRNK 301721
TAFLWB
TAF
KLWB 301721Z 3018/3118 29012G24KT 6SM -SHSN SCT007 OVC015
      TEMPO 3018/3022 2SM -SHSN OVC012
     FM302200 30008G16KT P6SM BKN020
     FM310200 29007KT P6SM BKN025
     FM311200 29004KT P6SM SCT030=

USA.gov is the U.S. government's official web portal to all federal, state and local government web resources and services.